Time;durP1;ratioP1;P1;durP2;ratioP2;P2;SDS_P1;SDS_P2;PMS_P1;PMS_P2;Temp;Humidity;BMP_temperature;BMP_pressure;BME280_temperature;BME280_humidity;BME280_pressure;Samples;Min_cycle;Max_cycle;Signal;HPM_P1;HPM_P2
2023/12/23 00:01:05;;;;;;;;;;;12.10;99.90;;;;;;7337318;19;130574;-67
2023/12/23 00:06:14;;;;;;;;;;;12.10;99.90;;;;;;7332289;19;108581;-68
2023/12/23 00:08:41;;;;;;;;;;;12.10;99.90;;;;;;7331427;19;109963;-68
2023/12/23 00:11:08;;;;;;;;;;;12.10;99.90;;;;;;7303938;19;108613;-66
2023/12/23 00:13:36;;;;;;;;;;;12.10;99.90;;;;;;7324770;19;110523;-66
2023/12/23 00:16:03;;;;;;;;;;;12.10;99.90;;;;;;7332900;19;109020;-66
2023/12/23 00:18:30;;;;;;;;;;;12.00;99.90;;;;;;7333787;19;108971;-66
2023/12/23 00:20:57;;;;;;;;;;;12.10;99.90;;;;;;7335502;19;109184;-67
2023/12/23 00:23:25;;;;;;;;;;;12.10;99.90;;;;;;7338614;19;109052;-66
2023/12/23 00:25:52;;;;;;;;;;;12.00;99.90;;;;;;7331043;19;109430;-67
2023/12/23 00:28:20;;;;;;;;;;;12.00;99.90;;;;;;7333582;19;108586;-67
2023/12/23 00:30:47;;;;;;;;;;;12.00;99.90;;;;;;7330418;19;109604;-66
2023/12/23 00:33:14;;;;;;;;;;;12.10;99.90;;;;;;7330883;19;109239;-67
2023/12/23 00:35:42;;;;;;;;;;;12.00;99.90;;;;;;7335035;19;111646;-72
2023/12/23 00:38:10;;;;;;;;;;;12.00;99.90;;;;;;7331998;19;109220;-67
2023/12/23 00:40:37;;;;;;;;;;;12.00;99.90;;;;;;7330835;19;110107;-68
2023/12/23 00:43:04;;;;;;;;;;;12.00;99.90;;;;;;7332762;19;108676;-68
2023/12/23 00:45:31;;;;;;;;;;;12.00;99.90;;;;;;7338412;19;109726;-67
2023/12/23 00:47:58;;;;;;;;;;;12.00;99.90;;;;;;7335410;19;108732;-67
2023/12/23 00:50:26;;;;;;;;;;;12.10;99.90;;;;;;7329539;19;108844;-67
2023/12/23 00:52:53;;;;;;;;;;;12.10;99.90;;;;;;7333755;19;109182;-67
2023/12/23 00:55:20;;;;;;;;;;;12.00;99.90;;;;;;7330636;19;110152;-67
2023/12/23 00:57:47;;;;;;;;;;;12.00;99.90;;;;;;7332313;19;109235;-67
2023/12/23 01:00:14;;;;;;;;;;;12.10;99.90;;;;;;7331524;19;109937;-67
2023/12/23 01:02:42;;;;;;;;;;;12.00;99.90;;;;;;7333415;19;109102;-67
2023/12/23 01:05:09;;;;;;;;;;;12.00;99.90;;;;;;7335107;19;109774;-67
2023/12/23 01:07:37;;;;;;;;;;;12.00;99.90;;;;;;7330372;19;108903;-68
2023/12/23 01:10:05;;;;;;;;;;;12.00;99.90;;;;;;7329868;19;108844;-67
2023/12/23 01:12:32;;;;;;;;;;;12.00;99.90;;;;;;7334717;19;109613;-68
2023/12/23 01:15:00;;;;;;;;;;;11.90;99.90;;;;;;7330661;19;109542;-67
2023/12/23 01:17:27;;;;;;;;;;;11.90;99.90;;;;;;7337534;19;108973;-68
2023/12/23 01:19:54;;;;;;;;;;;12.00;99.90;;;;;;7337372;19;109407;-68
2023/12/23 01:22:21;;;;;;;;;;;11.90;99.90;;;;;;7336597;19;108594;-67
2023/12/23 01:24:48;;;;;;;;;;;12.00;99.90;;;;;;7336938;19;108592;-67
2023/12/23 01:27:15;;;;;;;;;;;11.90;99.90;;;;;;7341666;19;110110;-68
2023/12/23 01:29:42;;;;;;;;;;;11.90;99.90;;;;;;7339454;19;108691;-67
2023/12/23 01:32:09;;;;;;;;;;;12.00;99.90;;;;;;7337087;19;109767;-67
2023/12/23 01:34:36;;;;;;;;;;;12.00;99.90;;;;;;7338605;19;110860;-67
2023/12/23 01:37:03;;;;;;;;;;;12.00;99.90;;;;;;7335641;19;108787;-67
2023/12/23 01:39:30;;;;;;;;;;;12.00;99.90;;;;;;7336453;19;110645;-67
2023/12/23 01:41:57;;;;;;;;;;;11.90;99.90;;;;;;7337543;19;109040;-67
2023/12/23 01:44:24;;;;;;;;;;;12.00;99.90;;;;;;7338998;19;109263;-67
2023/12/23 01:46:52;;;;;;;;;;;12.00;99.90;;;;;;7335866;19;110705;-67
2023/12/23 01:49:20;;;;;;;;;;;12.00;99.90;;;;;;7345754;19;108989;-68
2023/12/23 01:51:48;;;;;;;;;;;12.00;99.90;;;;;;7333311;19;110229;-67
2023/12/23 01:54:15;;;;;;;;;;;11.90;99.90;;;;;;7337027;19;108971;-67
2023/12/23 01:56:43;;;;;;;;;;;11.90;99.90;;;;;;7337352;19;108748;-67
2023/12/23 01:59:10;;;;;;;;;;;11.90;99.90;;;;;;7335377;19;110173;-67
2023/12/23 02:01:39;;;;;;;;;;;11.90;99.90;;;;;;7335899;19;108469;-67
2023/12/23 02:04:06;;;;;;;;;;;11.90;99.90;;;;;;7337320;19;110510;-67
2023/12/23 02:06:33;;;;;;;;;;;11.90;99.90;;;;;;7337583;19;109287;-75
2023/12/23 02:09:04;;;;;;;;;;;11.90;99.90;;;;;;7338592;19;109540;-74
2023/12/23 02:11:31;;;;;;;;;;;11.90;99.90;;;;;;7340034;19;110354;-72
2023/12/23 02:14:00;;;;;;;;;;;11.90;99.90;;;;;;7336280;19;108665;-72
2023/12/23 02:16:28;;;;;;;;;;;11.90;99.90;;;;;;7337869;19;109590;-73
2023/12/23 02:18:55;;;;;;;;;;;11.90;99.90;;;;;;7337428;19;110790;-74
2023/12/23 02:21:25;;;;;;;;;;;11.80;99.90;;;;;;7335240;19;108675;-73
2023/12/23 02:23:52;;;;;;;;;;;11.80;99.90;;;;;;7339482;19;109979;-74
2023/12/23 02:26:20;;;;;;;;;;;11.80;99.90;;;;;;7337497;19;110462;-68
2023/12/23 02:28:51;;;;;;;;;;;11.80;99.90;;;;;;7335726;19;108484;-67
2023/12/23 02:31:19;;;;;;;;;;;11.70;99.90;;;;;;7334232;19;109323;-68
2023/12/23 02:33:47;;;;;;;;;;;11.70;99.90;;;;;;7345264;19;109136;-68
2023/12/23 02:36:19;;;;;;;;;;;11.70;99.90;;;;;;7333487;19;108803;-68
2023/12/23 02:38:47;;;;;;;;;;;11.70;99.90;;;;;;7335356;19;109623;-68
2023/12/23 02:41:14;;;;;;;;;;;11.70;99.90;;;;;;7335679;19;108679;-67
2023/12/23 02:43:41;;;;;;;;;;;11.70;99.90;;;;;;7325455;19;110348;-68
2023/12/23 02:46:08;;;;;;;;;;;11.60;99.90;;;;;;7335147;19;109859;-68
2023/12/23 02:48:35;;;;;;;;;;;11.70;99.90;;;;;;7337793;19;108887;-67
2023/12/23 02:51:02;;;;;;;;;;;11.60;99.90;;;;;;7335198;19;109243;-68
2023/12/23 02:53:30;;;;;;;;;;;11.60;99.90;;;;;;7331842;19;111476;-68
2023/12/23 02:55:57;;;;;;;;;;;11.60;99.90;;;;;;7342054;19;108759;-67
2023/12/23 02:58:25;;;;;;;;;;;11.60;99.90;;;;;;7336530;19;109246;-68
2023/12/23 03:00:52;;;;;;;;;;;11.60;99.90;;;;;;7335296;19;108652;-67
2023/12/23 03:03:19;;;;;;;;;;;11.60;99.90;;;;;;7330508;19;108770;-68
2023/12/23 03:05:46;;;;;;;;;;;11.60;99.90;;;;;;7327532;19;113398;-70
2023/12/23 03:08:13;;;;;;;;;;;11.60;99.90;;;;;;7332711;19;108340;-68
2023/12/23 03:10:40;;;;;;;;;;;11.60;99.90;;;;;;7336762;19;108570;-67
2023/12/23 03:13:08;;;;;;;;;;;11.60;99.90;;;;;;7330309;19;111008;-67
2023/12/23 03:15:35;;;;;;;;;;;11.60;99.90;;;;;;7342955;19;108748;-67
2023/12/23 03:18:02;;;;;;;;;;;11.60;99.90;;;;;;7336570;19;109597;-67
2023/12/23 03:20:29;;;;;;;;;;;11.50;99.90;;;;;;7335599;19;108797;-67
2023/12/23 03:22:56;;;;;;;;;;;11.50;99.90;;;;;;7331383;19;109897;-67
2023/12/23 03:25:24;;;;;;;;;;;11.50;99.90;;;;;;7329706;19;109829;-67
2023/12/23 03:27:51;;;;;;;;;;;11.50;99.90;;;;;;7337873;19;108889;-66
2023/12/23 03:30:18;;;;;;;;;;;11.50;99.90;;;;;;7330901;19;110169;-67
2023/12/23 03:32:46;;;;;;;;;;;11.50;99.90;;;;;;7334583;19;109677;-67
2023/12/23 03:35:13;;;;;;;;;;;11.50;99.90;;;;;;7331345;19;108504;-67
2023/12/23 03:37:40;;;;;;;;;;;11.50;99.90;;;;;;7340159;19;108774;-67
2023/12/23 03:40:08;;;;;;;;;;;11.50;99.90;;;;;;7331869;19;110453;-68
2023/12/23 03:42:38;;;;;;;;;;;11.50;99.90;;;;;;7336465;19;109017;-67
2023/12/23 03:45:06;;;;;;;;;;;11.50;99.90;;;;;;7334232;19;109302;-66
2023/12/23 03:47:34;;;;;;;;;;;11.50;99.90;;;;;;7334851;19;109669;-66
2023/12/23 03:50:01;;;;;;;;;;;11.50;99.90;;;;;;7331378;19;109076;-67
2023/12/23 03:52:28;;;;;;;;;;;11.50;99.90;;;;;;7329075;19;109517;-69
2023/12/23 03:54:55;;;;;;;;;;;11.50;99.90;;;;;;7335490;19;108644;-66
2023/12/23 03:57:23;;;;;;;;;;;11.50;99.90;;;;;;7335072;19;110345;-67
2023/12/23 03:59:50;;;;;;;;;;;11.50;99.90;;;;;;7341752;19;108995;-67
2023/12/23 04:02:17;;;;;;;;;;;11.50;99.90;;;;;;7333958;19;110992;-68
2023/12/23 04:04:44;;;;;;;;;;;11.50;99.90;;;;;;7335866;19;111139;-67
2023/12/23 04:07:12;;;;;;;;;;;11.60;99.90;;;;;;7336462;19;111814;-67
2023/12/23 04:09:40;;;;;;;;;;;11.50;99.90;;;;;;7337016;19;109604;-68
2023/12/23 04:12:09;;;;;;;;;;;11.50;99.90;;;;;;7332442;19;109177;-68
2023/12/23 04:14:37;;;;;;;;;;;11.50;99.90;;;;;;7335744;19;109242;-67
2023/12/23 04:17:04;;;;;;;;;;;11.50;99.90;;;;;;7333683;19;108584;-68
2023/12/23 04:19:31;;;;;;;;;;;11.50;99.90;;;;;;7333887;19;109190;-68
2023/12/23 04:21:59;;;;;;;;;;;11.50;99.90;;;;;;7336050;19;109637;-67
2023/12/23 04:24:28;;;;;;;;;;;11.40;99.90;;;;;;7332806;19;109725;-67
2023/12/23 04:26:55;;;;;;;;;;;11.50;99.90;;;;;;7334436;19;108639;-67
2023/12/23 04:29:23;;;;;;;;;;;11.50;99.90;;;;;;7334166;19;109014;-68
2023/12/23 04:31:50;;;;;;;;;;;11.50;99.90;;;;;;7328006;19;110807;-67
2023/12/23 04:34:17;;;;;;;;;;;11.50;99.90;;;;;;7331587;19;108716;-69
2023/12/23 04:36:44;;;;;;;;;;;11.50;99.90;;;;;;7335013;19;108503;-67
2023/12/23 04:39:11;;;;;;;;;;;11.50;99.90;;;;;;7331132;19;109095;-68
2023/12/23 04:41:41;;;;;;;;;;;11.50;99.90;;;;;;7330062;19;108907;-68
2023/12/23 04:44:08;;;;;;;;;;;11.50;99.90;;;;;;7335966;19;108983;-68
2023/12/23 04:46:35;;;;;;;;;;;11.50;99.90;;;;;;7331837;19;108524;-68
2023/12/23 04:49:02;;;;;;;;;;;11.50;99.90;;;;;;7330939;19;109277;-68
2023/12/23 04:51:29;;;;;;;;;;;11.60;99.90;;;;;;7335972;19;109364;-69
2023/12/23 04:53:56;;;;;;;;;;;11.50;99.90;;;;;;7335562;19;109138;-69
2023/12/23 04:56:23;;;;;;;;;;;11.60;99.90;;;;;;7339119;19;109279;-72
2023/12/23 04:58:51;;;;;;;;;;;11.50;99.90;;;;;;7338418;19;109814;-69
2023/12/23 05:01:18;;;;;;;;;;;11.50;99.90;;;;;;7337873;19;108667;-70
2023/12/23 05:03:45;;;;;;;;;;;11.50;99.90;;;;;;7343912;19;109089;-68
2023/12/23 05:06:12;;;;;;;;;;;11.60;99.90;;;;;;7338565;19;109395;-68
2023/12/23 05:08:39;;;;;;;;;;;11.60;99.90;;;;;;7337471;19;109545;-70
2023/12/23 05:11:06;;;;;;;;;;;11.50;99.90;;;;;;7336457;19;109950;-68
2023/12/23 05:13:34;;;;;;;;;;;11.50;99.90;;;;;;7337346;19;108929;-77
2023/12/23 05:16:01;;;;;;;;;;;11.60;99.90;;;;;;7341370;19;108928;-78
2023/12/23 05:18:28;;;;;;;;;;;11.60;99.90;;;;;;7339048;19;109714;-77
2023/12/23 05:20:55;;;;;;;;;;;11.60;99.90;;;;;;7335938;19;108619;-74
2023/12/23 05:23:22;;;;;;;;;;;11.60;99.90;;;;;;7342669;19;110787;-69
2023/12/23 05:25:50;;;;;;;;;;;11.50;99.90;;;;;;7340586;19;109945;-71
2023/12/23 05:28:17;;;;;;;;;;;11.50;99.90;;;;;;7334966;19;108680;-69
2023/12/23 05:30:44;;;;;;;;;;;11.50;99.90;;;;;;7336517;19;109105;-69
2023/12/23 05:33:12;;;;;;;;;;;11.60;99.90;;;;;;7341384;19;109148;-72
2023/12/23 05:35:39;;;;;;;;;;;11.60;99.90;;;;;;7335935;19;108877;-68
2023/12/23 05:38:06;;;;;;;;;;;11.60;99.90;;;;;;7330191;19;110581;-66
2023/12/23 05:40:33;;;;;;;;;;;11.50;99.90;;;;;;7336650;19;108555;-66
2023/12/23 05:43:02;;;;;;;;;;;11.50;99.90;;;;;;7338932;19;108683;-67
2023/12/23 05:45:29;;;;;;;;;;;11.50;99.90;;;;;;7332441;19;110939;-67
2023/12/23 05:47:56;;;;;;;;;;;11.50;99.90;;;;;;7342376;19;108881;-67
2023/12/23 05:50:23;;;;;;;;;;;11.50;99.90;;;;;;7332939;19;110280;-67
2023/12/23 05:52:50;;;;;;;;;;;11.50;99.90;;;;;;7343373;19;108625;-67
2023/12/23 05:55:19;;;;;;;;;;;11.60;99.90;;;;;;7332373;19;109807;-68
2023/12/23 05:57:46;;;;;;;;;;;11.50;99.90;;;;;;7337701;19;110814;-69
2023/12/23 06:00:13;;;;;;;;;;;11.50;99.90;;;;;;7337839;19;110065;-67
2023/12/23 06:02:40;;;;;;;;;;;11.50;99.90;;;;;;7334860;19;109127;-67
2023/12/23 06:05:08;;;;;;;;;;;11.50;99.90;;;;;;7332560;19;109148;-70
2023/12/23 06:07:35;;;;;;;;;;;11.60;99.90;;;;;;7335891;19;110961;-67
2023/12/23 06:10:04;;;;;;;;;;;11.60;99.90;;;;;;7344476;19;108172;-67
2023/12/23 06:12:31;;;;;;;;;;;11.50;99.90;;;;;;7334565;19;110315;-67
2023/12/23 06:14:58;;;;;;;;;;;11.50;99.90;;;;;;7335929;19;110086;-67
2023/12/23 06:17:25;;;;;;;;;;;11.50;99.90;;;;;;7332810;19;109180;-67
2023/12/23 06:19:53;;;;;;;;;;;11.50;99.90;;;;;;7332695;19;109968;-67
2023/12/23 06:22:20;;;;;;;;;;;11.50;99.90;;;;;;7330160;19;109631;-71
2023/12/23 06:24:47;;;;;;;;;;;11.50;99.90;;;;;;7337658;19;111655;-67
2023/12/23 06:27:14;;;;;;;;;;;11.60;99.90;;;;;;7334745;19;108783;-68
2023/12/23 06:29:41;;;;;;;;;;;11.50;99.90;;;;;;7339018;19;109418;-67
2023/12/23 06:32:08;;;;;;;;;;;11.60;99.90;;;;;;7336209;19;109815;-67
2023/12/23 06:34:35;;;;;;;;;;;11.50;99.90;;;;;;7334756;19;112343;-67
2023/12/23 06:37:03;;;;;;;;;;;11.60;99.90;;;;;;7334642;19;109003;-67
2023/12/23 06:39:30;;;;;;;;;;;11.60;99.90;;;;;;7336925;19;108974;-67
2023/12/23 06:41:57;;;;;;;;;;;11.60;99.90;;;;;;7332718;19;109345;-68
2023/12/23 06:44:25;;;;;;;;;;;11.60;99.90;;;;;;7336744;19;110262;-67
2023/12/23 06:46:52;;;;;;;;;;;11.60;99.90;;;;;;7335253;19;108600;-69
2023/12/23 06:49:19;;;;;;;;;;;11.60;99.90;;;;;;7335030;19;110029;-67
2023/12/23 06:51:47;;;;;;;;;;;11.60;99.90;;;;;;7332785;19;108914;-71
2023/12/23 06:54:14;;;;;;;;;;;11.60;99.90;;;;;;7343206;19;108746;-74
2023/12/23 06:56:41;;;;;;;;;;;11.70;99.90;;;;;;7337869;19;110449;-74
2023/12/23 06:59:10;;;;;;;;;;;11.60;99.90;;;;;;7334897;19;108743;-73
2023/12/23 07:01:43;;;;;;;;;;;11.60;99.90;;;;;;7335930;19;109338;-78
2023/12/23 07:04:10;;;;;;;;;;;11.70;99.90;;;;;;7338048;19;109256;-71
2023/12/23 07:06:37;;;;;;;;;;;11.70;99.90;;;;;;7338552;19;109585;-75
2023/12/23 07:09:05;;;;;;;;;;;11.70;99.90;;;;;;7336617;19;108945;-76
2023/12/23 07:11:35;;;;;;;;;;;11.70;99.90;;;;;;7336418;19;110564;-69
2023/12/23 07:14:02;;;;;;;;;;;11.70;99.90;;;;;;7333994;19;109100;-68
2023/12/23 07:16:29;;;;;;;;;;;11.70;99.90;;;;;;7336279;19;110126;-68
2023/12/23 07:18:56;;;;;;;;;;;11.70;99.90;;;;;;7335160;19;108742;-66
2023/12/23 07:21:23;;;;;;;;;;;11.70;99.90;;;;;;7336203;19;109187;-66
2023/12/23 07:23:50;;;;;;;;;;;11.70;99.90;;;;;;7335159;19;110779;-67
2023/12/23 07:26:18;;;;;;;;;;;11.70;99.90;;;;;;7334121;19;108712;-67
2023/12/23 07:28:45;;;;;;;;;;;11.70;99.90;;;;;;7336566;19;108804;-67
2023/12/23 07:31:12;;;;;;;;;;;11.70;99.90;;;;;;7335690;19;110900;-68
2023/12/23 07:33:39;;;;;;;;;;;11.70;99.90;;;;;;7335579;19;108343;-67
2023/12/23 07:36:07;;;;;;;;;;;11.70;99.90;;;;;;7341529;19;109936;-67
2023/12/23 07:38:34;;;;;;;;;;;11.70;99.90;;;;;;7334028;19;110826;-67
2023/12/23 07:41:01;;;;;;;;;;;11.70;99.90;;;;;;7333634;19;110236;-67
2023/12/23 07:43:29;;;;;;;;;;;11.70;99.90;;;;;;7331212;19;110542;-68
2023/12/23 07:45:56;;;;;;;;;;;11.70;99.90;;;;;;7334363;19;108878;-67
2023/12/23 07:48:23;;;;;;;;;;;11.70;99.90;;;;;;7332553;19;108555;-67
2023/12/23 07:50:50;;;;;;;;;;;11.70;99.90;;;;;;7336034;19;110845;-67
2023/12/23 07:53:17;;;;;;;;;;;11.70;99.90;;;;;;7331541;19;108663;-67
2023/12/23 07:55:44;;;;;;;;;;;11.70;99.90;;;;;;7331896;19;110152;-67
2023/12/23 07:58:12;;;;;;;;;;;11.70;99.90;;;;;;7337127;19;111526;-67
2023/12/23 08:00:39;;;;;;;;;;;11.70;99.90;;;;;;7333424;19;109800;-68
2023/12/23 08:03:06;;;;;;;;;;;11.70;99.90;;;;;;7332862;19;111082;-68
2023/12/23 08:05:34;;;;;;;;;;;11.70;99.90;;;;;;7335287;19;108677;-67
2023/12/23 08:08:01;;;;;;;;;;;11.70;99.90;;;;;;7333192;19;109052;-67
2023/12/23 08:10:29;;;;;;;;;;;11.70;99.90;;;;;;7329582;19;109455;-67
2023/12/23 08:12:56;;;;;;;;;;;11.70;99.90;;;;;;7329890;19;110089;-68
2023/12/23 08:15:23;;;;;;;;;;;11.70;99.90;;;;;;7331800;19;110791;-67
2023/12/23 08:17:50;;;;;;;;;;;11.70;99.90;;;;;;7333933;19;110082;-67
2023/12/23 08:20:17;;;;;;;;;;;11.70;99.90;;;;;;7338528;19;109192;-67
2023/12/23 08:22:45;;;;;;;;;;;11.70;99.90;;;;;;7329900;19;109641;-68
2023/12/23 08:25:12;;;;;;;;;;;11.70;99.90;;;;;;7331090;19;111045;-68
2023/12/23 08:27:39;;;;;;;;;;;11.70;99.90;;;;;;7330387;19;110243;-67
2023/12/23 08:30:07;;;;;;;;;;;11.70;99.90;;;;;;7336341;19;109283;-67
2023/12/23 08:32:34;;;;;;;;;;;11.70;99.90;;;;;;7331170;19;108792;-67
2023/12/23 08:35:01;;;;;;;;;;;11.80;99.90;;;;;;7330929;19;109112;-67
2023/12/23 08:37:29;;;;;;;;;;;11.70;99.90;;;;;;7330078;19;110603;-67
2023/12/23 08:39:56;;;;;;;;;;;11.70;99.90;;;;;;7333814;19;108910;-67
2023/12/23 08:42:23;;;;;;;;;;;11.80;99.90;;;;;;7336712;19;109889;-67
2023/12/23 08:44:50;;;;;;;;;;;11.80;99.90;;;;;;7331388;19;108967;-68
2023/12/23 08:47:17;;;;;;;;;;;11.80;99.90;;;;;;7331536;19;108580;-67
2023/12/23 08:49:44;;;;;;;;;;;11.80;99.90;;;;;;7332776;19;109827;-67
2023/12/23 08:52:12;;;;;;;;;;;11.80;99.90;;;;;;7326804;19;109521;-73
2023/12/23 08:54:39;;;;;;;;;;;11.80;99.90;;;;;;7334689;19;109170;-73
2023/12/23 08:57:08;;;;;;;;;;;11.70;99.90;;;;;;7332062;19;109472;-73
2023/12/23 08:59:35;;;;;;;;;;;11.80;99.90;;;;;;7334449;19;108540;-76
2023/12/23 09:02:04;;;;;;;;;;;11.70;99.90;;;;;;7330991;19;109715;-73
2023/12/23 09:04:31;;;;;;;;;;;11.70;99.90;;;;;;7339850;19;109430;-74
2023/12/23 09:06:58;;;;;;;;;;;11.70;99.90;;;;;;7332089;19;110600;-73
2023/12/23 09:09:25;;;;;;;;;;;11.80;99.90;;;;;;7331027;19;112405;-74
2023/12/23 09:11:53;;;;;;;;;;;11.80;99.90;;;;;;7331600;19;112118;-73
2023/12/23 09:14:20;;;;;;;;;;;11.80;99.90;;;;;;7332607;19;108599;-73
2023/12/23 09:16:47;;;;;;;;;;;11.80;99.90;;;;;;7332820;19;109821;-73
2023/12/23 09:19:14;;;;;;;;;;;11.80;99.90;;;;;;7333494;19;108952;-73
2023/12/23 09:21:42;;;;;;;;;;;11.80;99.90;;;;;;7332404;19;108925;-73
2023/12/23 09:24:09;;;;;;;;;;;11.80;99.90;;;;;;7339900;19;109745;-72
2023/12/23 09:26:36;;;;;;;;;;;11.80;99.90;;;;;;7333372;19;109432;-73
2023/12/23 09:29:03;;;;;;;;;;;11.80;99.90;;;;;;7333982;19;109431;-73
2023/12/23 09:31:30;;;;;;;;;;;11.90;99.90;;;;;;7333353;19;109045;-73
2023/12/23 09:33:57;;;;;;;;;;;12.00;99.90;;;;;;7331641;19;108702;-73
2023/12/23 09:36:25;;;;;;;;;;;11.90;99.90;;;;;;7333144;19;109121;-73
2023/12/23 09:38:52;;;;;;;;;;;11.90;99.90;;;;;;7343115;19;108735;-73
2023/12/23 09:41:19;;;;;;;;;;;11.90;99.90;;;;;;7339338;19;109588;-74
2023/12/23 09:43:48;;;;;;;;;;;12.00;99.90;;;;;;7344067;19;110448;-74
2023/12/23 09:46:16;;;;;;;;;;;12.00;99.90;;;;;;7346446;19;109316;-74
2023/12/23 09:48:43;;;;;;;;;;;12.00;99.90;;;;;;7343113;19;108638;-74
2023/12/23 09:51:11;;;;;;;;;;;12.10;99.90;;;;;;7343945;19;108607;-74
2023/12/23 09:53:40;;;;;;;;;;;12.10;99.90;;;;;;7345648;19;108594;-74
2023/12/23 09:56:08;;;;;;;;;;;12.10;99.90;;;;;;7345315;19;109226;-75
2023/12/23 09:58:35;;;;;;;;;;;12.20;99.90;;;;;;7342150;19;108496;-75
2023/12/23 10:01:02;;;;;;;;;;;12.20;99.90;;;;;;7343692;19;108477;-73
2023/12/23 10:03:30;;;;;;;;;;;12.10;99.90;;;;;;7339424;19;109303;-75
2023/12/23 10:06:00;;;;;;;;;;;12.10;99.90;;;;;;7346713;19;109191;-75
2023/12/23 10:08:28;;;;;;;;;;;12.20;99.90;;;;;;7355267;19;108562;-73
2023/12/23 10:10:55;;;;;;;;;;;12.20;99.90;;;;;;7353224;19;108516;-75
2023/12/23 10:13:22;;;;;;;;;;;12.20;99.90;;;;;;7351428;19;108864;-76
2023/12/23 10:15:49;;;;;;;;;;;12.30;99.90;;;;;;7348779;19;110194;-77
2023/12/23 10:18:17;;;;;;;;;;;12.40;99.90;;;;;;7345071;19;109270;-74
2023/12/23 10:20:44;;;;;;;;;;;12.40;99.90;;;;;;7340380;19;109005;-75
2023/12/23 10:23:11;;;;;;;;;;;12.40;99.90;;;;;;7337951;19;110420;-73
2023/12/23 10:25:38;;;;;;;;;;;12.50;99.90;;;;;;7337877;19;108124;-75
2023/12/23 10:28:06;;;;;;;;;;;12.50;99.90;;;;;;7339941;19;109476;-78
2023/12/23 10:30:34;;;;;;;;;;;12.50;99.90;;;;;;7344255;19;109451;-76
2023/12/23 10:33:08;;;;;;;;;;;12.60;99.90;;;;;;7339078;19;108796;-77
2023/12/23 10:35:42;;;;;;;;;;;12.60;99.90;;;;;;7338210;19;109251;-77
2023/12/23 10:38:10;;;;;;;;;;;12.60;99.90;;;;;;7337742;19;109127;-76
2023/12/23 10:40:39;;;;;;;;;;;12.60;99.90;;;;;;7339236;19;108793;-75
2023/12/23 10:43:08;;;;;;;;;;;12.60;99.90;;;;;;7338086;19;108828;-74
2023/12/23 10:45:35;;;;;;;;;;;12.70;99.90;;;;;;7336836;19;108582;-75
2023/12/23 10:48:04;;;;;;;;;;;12.70;99.90;;;;;;7339759;19;108754;-76
2023/12/23 10:50:31;;;;;;;;;;;12.70;99.90;;;;;;7336847;19;109722;-74
2023/12/23 10:52:59;;;;;;;;;;;12.70;99.90;;;;;;7342992;19;108777;-74
2023/12/23 10:55:27;;;;;;;;;;;12.70;99.90;;;;;;7332573;19;110469;-73
2023/12/23 10:57:55;;;;;;;;;;;12.80;99.90;;;;;;7341365;19;108448;-74
2023/12/23 11:00:22;;;;;;;;;;;12.70;99.90;;;;;;7336476;19;109112;-74
2023/12/23 11:02:57;;;;;;;;;;;12.80;99.90;;;;;;7338271;19;109954;-75
2023/12/23 11:05:24;;;;;;;;;;;12.80;99.90;;;;;;7336633;19;108666;-78
2023/12/23 11:07:53;;;;;;;;;;;12.80;99.90;;;;;;7335095;19;109572;-77
2023/12/23 11:10:30;;;;;;;;;;;12.80;99.90;;;;;;7334472;19;113913;-77
2023/12/23 11:12:59;;;;;;;;;;;12.80;99.90;;;;;;7336854;19;109979;-79
2023/12/23 11:15:26;;;;;;;;;;;12.80;99.90;;;;;;7341172;19;110259;-80
2023/12/23 11:17:54;;;;;;;;;;;12.90;99.90;;;;;;7338893;19;109218;-77
2023/12/23 11:20:42;;;;;;;;;;;12.90;99.90;;;;;;7336160;19;110299;-75
2023/12/23 11:23:34;;;;;;;;;;;13.00;99.90;;;;;;7337167;19;109120;-74
2023/12/23 11:26:02;;;;;;;;;;;13.00;99.90;;;;;;7339063;19;109008;-73
2023/12/23 11:28:35;;;;;;;;;;;13.00;99.90;;;;;;7336975;19;112013;-73
2023/12/23 11:31:03;;;;;;;;;;;13.00;99.90;;;;;;7337352;19;110256;-73
2023/12/23 11:33:32;;;;;;;;;;;13.00;99.90;;;;;;7340672;19;109712;-73
2023/12/23 11:36:00;;;;;;;;;;;13.00;99.90;;;;;;7340159;19;108650;-74
2023/12/23 11:38:29;;;;;;;;;;;13.00;99.90;;;;;;7331760;19;108885;-73
2023/12/23 11:40:57;;;;;;;;;;;13.00;99.90;;;;;;7335973;19;109443;-73
2023/12/23 11:43:24;;;;;;;;;;;13.00;99.90;;;;;;7335513;19;111600;-74
2023/12/23 11:45:52;;;;;;;;;;;12.90;99.90;;;;;;7336552;19;108733;-74
2023/12/23 11:48:21;;;;;;;;;;;13.00;99.90;;;;;;7339157;19;109097;-73
2023/12/23 11:50:53;;;;;;;;;;;13.00;99.90;;;;;;7333170;19;110198;-74
2023/12/23 11:53:24;;;;;;;;;;;13.00;99.90;;;;;;7334539;19;108218;-72
2023/12/23 11:55:52;;;;;;;;;;;12.90;99.90;;;;;;7333851;19;111794;-73
2023/12/23 11:58:19;;;;;;;;;;;12.90;99.90;;;;;;7336137;19;109150;-74
2023/12/23 12:00:53;;;;;;;;;;;13.00;99.90;;;;;;7333402;19;108769;-72
2023/12/23 12:03:20;;;;;;;;;;;13.00;99.90;;;;;;7335624;19;109455;-74
2023/12/23 12:05:48;;;;;;;;;;;13.00;99.90;;;;;;7334011;19;108487;-74
2023/12/23 12:08:15;;;;;;;;;;;13.00;99.90;;;;;;7332995;19;109209;-73
2023/12/23 12:10:43;;;;;;;;;;;13.00;99.90;;;;;;7336226;19;110009;-73
2023/12/23 12:13:10;;;;;;;;;;;13.10;99.90;;;;;;7335975;19;108513;-74
2023/12/23 12:15:37;;;;;;;;;;;13.00;99.90;;;;;;7335665;19;109595;-73
2023/12/23 12:18:05;;;;;;;;;;;13.00;99.90;;;;;;7338083;19;109338;-73
2023/12/23 12:20:32;;;;;;;;;;;13.00;99.90;;;;;;7342423;19;110773;-73
2023/12/23 12:23:01;;;;;;;;;;;13.10;99.90;;;;;;7331124;19;109242;-73
2023/12/23 12:25:28;;;;;;;;;;;13.10;99.90;;;;;;7337888;19;108848;-73
2023/12/23 12:27:55;;;;;;;;;;;13.10;99.90;;;;;;7335120;19;108403;-73
2023/12/23 12:30:25;;;;;;;;;;;13.00;99.90;;;;;;7332648;19;110295;-73
2023/12/23 12:32:52;;;;;;;;;;;13.10;99.90;;;;;;7334800;19;108969;-73
2023/12/23 12:35:21;;;;;;;;;;;13.00;99.90;;;;;;7332307;19;109267;-75
2023/12/23 12:37:51;;;;;;;;;;;13.00;99.90;;;;;;7334186;19;109211;-73
2023/12/23 12:40:18;;;;;;;;;;;13.00;99.90;;;;;;7331967;19;109686;-72
2023/12/23 12:42:47;;;;;;;;;;;13.00;99.90;;;;;;7336772;19;111922;-72
2023/12/23 12:45:14;;;;;;;;;;;13.10;99.90;;;;;;7332661;19;108984;-73
2023/12/23 12:47:41;;;;;;;;;;;13.00;99.90;;;;;;7333744;19;109126;-74
2023/12/23 12:50:09;;;;;;;;;;;13.10;99.90;;;;;;7329032;19;109832;-74
2023/12/23 12:52:36;;;;;;;;;;;13.10;99.90;;;;;;7330996;19;108695;-73
2023/12/23 12:55:04;;;;;;;;;;;13.10;99.90;;;;;;7332150;19;110754;-73
2023/12/23 12:57:32;;;;;;;;;;;13.10;99.90;;;;;;7331195;19;110229;-74
2023/12/23 12:59:59;;;;;;;;;;;13.10;99.90;;;;;;7333382;19;108897;-74
2023/12/23 13:02:26;;;;;;;;;;;13.10;99.90;;;;;;7329161;19;109657;-72
2023/12/23 13:04:54;;;;;;;;;;;13.10;99.90;;;;;;7338875;19;109885;-73
2023/12/23 13:07:23;;;;;;;;;;;13.10;99.90;;;;;;7329922;19;110666;-73
2023/12/23 13:09:50;;;;;;;;;;;13.10;99.90;;;;;;7334228;19;109709;-72
2023/12/23 13:12:17;;;;;;;;;;;13.00;99.90;;;;;;7335769;19;108509;-74
2023/12/23 13:14:45;;;;;;;;;;;13.00;99.90;;;;;;7339796;19;108828;-73
2023/12/23 13:17:12;;;;;;;;;;;13.00;99.90;;;;;;7338443;19;110349;-72
2023/12/23 13:19:39;;;;;;;;;;;13.00;99.90;;;;;;7338484;19;110232;-74
2023/12/23 13:22:06;;;;;;;;;;;13.00;99.90;;;;;;7339519;19;109601;-74
2023/12/23 13:24:33;;;;;;;;;;;13.00;99.90;;;;;;7336991;19;109239;-73
2023/12/23 13:27:00;;;;;;;;;;;13.00;99.90;;;;;;7343394;19;109438;-73
2023/12/23 13:29:28;;;;;;;;;;;13.00;99.90;;;;;;7338989;19;110432;-73
2023/12/23 13:31:55;;;;;;;;;;;13.00;99.90;;;;;;7340406;19;108514;-73
2023/12/23 13:34:22;;;;;;;;;;;13.00;99.90;;;;;;7342451;19;109151;-73
2023/12/23 13:36:50;;;;;;;;;;;13.00;99.90;;;;;;7336698;19;110897;-73
2023/12/23 13:39:17;;;;;;;;;;;13.00;99.90;;;;;;7337276;19;109401;-73
2023/12/23 13:41:44;;;;;;;;;;;13.00;99.90;;;;;;7337438;19;111031;-74
2023/12/23 13:44:11;;;;;;;;;;;13.00;99.90;;;;;;7336992;19;109989;-73
2023/12/23 13:46:38;;;;;;;;;;;13.00;99.90;;;;;;7341677;19;108941;-74
2023/12/23 13:49:05;;;;;;;;;;;12.90;99.90;;;;;;7336707;19;110486;-73
2023/12/23 13:51:33;;;;;;;;;;;13.00;99.90;;;;;;7336838;19;109129;-73
2023/12/23 13:54:00;;;;;;;;;;;13.00;99.90;;;;;;7338165;19;108787;-73
2023/12/23 13:56:27;;;;;;;;;;;12.90;99.90;;;;;;7335232;19;110425;-73
2023/12/23 13:58:55;;;;;;;;;;;12.90;99.90;;;;;;7332126;19;109180;-73
2023/12/23 14:01:22;;;;;;;;;;;12.90;99.90;;;;;;7338828;19;109024;-73
2023/12/23 14:03:49;;;;;;;;;;;12.90;99.90;;;;;;7329635;19;109472;-74
2023/12/23 14:06:16;;;;;;;;;;;12.90;99.90;;;;;;7337465;19;109614;-74
2023/12/23 14:08:43;;;;;;;;;;;12.90;99.90;;;;;;7343799;19;109161;-74